Time;durP1;ratioP1;P1;durP2;ratioP2;P2;SDS_P1;SDS_P2;PMS_P1;PMS_P2;Temp;Humidity;BMP_temperature;BMP_pressure;BME280_temperature;BME280_humidity;BME280_pressure;Samples;Min_cycle;Max_cycle;Signal;HPM_P1;HPM_P2
2023/05/18 11:32:28;;;;;;;;;;;;;;;27.42;26.39;100557.76;1709398;82;20480;-76
2023/05/18 11:34:55;;;;;;;;;;;;;;;27.34;26.76;100553.82;1730680;81;20182;-73
2023/05/18 11:37:40;;;;;;;;;;;;;;;27.30;27.00;100553.86;1734798;81;20167;-74
2023/05/18 11:52:46;;;;;;;;;;;;;;;27.07;27.17;100555.25;1723666;81;20179;-71
2023/05/18 11:55:17;;;;;;;;;;;;;;;27.07;27.08;100550.73;1726135;81;20132;-68
2023/05/18 11:57:46;;;;;;;;;;;;;;;27.09;27.21;100551.39;1732365;81;20148;-75
2023/05/18 12:00:14;;;;;;;;;;;;;;;27.14;27.40;100553.02;1732248;81;20171;-76
2023/05/18 12:02:43;;;;;;;;;;;;;;;27.16;27.67;100559.52;1724319;81;20211;-73
2023/05/18 12:05:14;;;;;;;;;;;;;;;27.10;27.82;100558.91;1728231;82;20474;-69
2023/05/18 12:20:30;;;;;;;;;;;;;;;26.23;28.93;100548.92;1743287;81;20379;-70
2023/05/18 12:22:55;;;;;;;;;;;;;;;26.16;29.39;100546.12;1749261;81;20894;-79
2023/05/18 12:25:24;;;;;;;;;;;;;;;26.15;29.33;100556.97;1743874;81;20428;-75
2023/05/18 12:27:51;;;;;;;;;;;;;;;26.14;29.08;100552.13;1746510;81;20105;-73
2023/05/18 12:32:55;;;;;;;;;;;;;;;26.15;28.97;100556.97;1751914;81;20130;-70
2023/05/18 12:35:25;;;;;;;;;;;;;;;26.12;28.91;100550.64;1746959;81;20149;-70
2023/05/18 12:37:58;;;;;;;;;;;;;;;26.10;28.61;100561.49;1756558;81;20316;-72
2023/05/18 12:40:24;;;;;;;;;;;;;;;26.05;28.50;100553.67;1742729;81;20176;-73
2023/05/18 12:45:33;;;;;;;;;;;;;;;26.05;28.96;100547.00;1745809;81;20125;-70
2023/05/18 12:48:12;;;;;;;;;;;;;;;26.10;28.83;100552.15;1753564;81;20567;-71
2023/05/18 12:50:47;;;;;;;;;;;;;;;26.13;28.84;100547.80;1752734;81;20191;-75
2023/05/18 12:53:14;;;;;;;;;;;;;;;26.14;28.71;100540.12;1742838;81;20116;-71
2023/05/18 12:55:40;;;;;;;;;;;;;;;26.18;28.68;100537.94;1747385;81;20136;-74
2023/05/18 12:58:17;;;;;;;;;;;;;;;26.16;28.67;100539.45;1748204;81;20094;-73
2023/05/18 13:00:44;;;;;;;;;;;;;;;26.13;28.30;100541.13;1750863;81;20898;-72
2023/05/18 13:03:16;;;;;;;;;;;;;;;26.07;28.10;100538.31;1749204;81;20447;-73
2023/05/18 13:05:44;;;;;;;;;;;;;;;25.99;28.06;100547.22;1748258;81;20377;-68
2023/05/18 13:08:20;;;;;;;;;;;;;;;25.90;28.03;100543.75;1752926;81;20161;-68
2023/05/18 13:10:49;;;;;;;;;;;;;;;25.85;28.13;100537.26;1752245;81;20468;-70
2023/05/18 13:13:21;;;;;;;;;;;;;;;25.81;28.05;100544.77;1755240;81;20112;-75
2023/05/18 13:15:47;;;;;;;;;;;;;;;25.75;28.07;100537.45;1775860;81;20506;-70
2023/05/18 13:18:13;;;;;;;;;;;;;;;25.70;28.08;100537.13;1755782;81;20151;-69
2023/05/18 13:20:48;;;;;;;;;;;;;;;25.65;28.07;100538.14;1747994;81;20189;-70
2023/05/18 13:23:16;;;;;;;;;;;;;;;25.63;28.21;100541.95;1754323;81;20449;-69
2023/05/18 13:25:42;;;;;;;;;;;;;;;25.63;28.36;100542.78;1750867;81;20183;-70
2023/05/18 13:28:10;;;;;;;;;;;;;;;25.65;28.41;100538.64;1751812;81;20148;-72
2023/05/18 13:30:37;;;;;;;;;;;;;;;25.66;28.45;100537.14;1749579;81;20184;-72
2023/05/18 13:33:06;;;;;;;;;;;;;;;25.68;28.33;100531.14;1737994;81;20134;-71
2023/05/18 13:35:35;;;;;;;;;;;;;;;25.67;28.51;100533.47;1747678;81;20161;-71
2023/05/18 13:40:34;;;;;;;;;;;;;;;25.63;28.45;100537.45;1745530;81;20145;-69
2023/05/18 13:43:01;;;;;;;;;;;;;;;25.62;28.47;100533.62;1748407;81;20161;-67
2023/05/18 13:45:29;;;;;;;;;;;;;;;25.61;28.25;100538.13;1747727;81;20141;-70
2023/05/18 13:47:56;;;;;;;;;;;;;;;25.61;28.30;100534.12;1718255;81;20133;-71
2023/05/18 13:50:25;;;;;;;;;;;;;;;25.62;28.32;100533.62;1748296;81;20169;-74
2023/05/18 13:52:52;;;;;;;;;;;;;;;25.60;28.19;100533.29;1749146;81;20133;-71
2023/05/18 13:57:52;;;;;;;;;;;;;;;25.59;28.47;100529.48;1749265;81;20145;-71
2023/05/18 14:00:20;;;;;;;;;;;;;;;25.60;28.48;100529.79;1759934;81;20135;-70
2023/05/18 14:02:47;;;;;;;;;;;;;;;25.59;28.71;100522.29;1753230;81;20121;-68
2023/05/18 14:05:13;;;;;;;;;;;;;;;25.59;28.76;100526.29;1768590;81;20546;-71
